Flight Track Log - Related Links

Times and Time Zones

All times are in EDT time to prevent confusion due to time zone crossing. See the SWA4385 flight status page for this flight to view local times or setup timezone preferences in your user account.


Time Position Orientation Groundspeed Altitude Reporting Facility
EDT Latitude Longitude Course Direction KTS MPH feet Rate Location/Type
Mon 06:38:55 PM 39.8500 -104.8000 273° West 221 254 7,500  Level Denver TRACON
Mon 06:39:49 PM 39.8833 -104.8667 303° West 262 302 9,500 1,826 Climbing Denver TRACON
Mon 06:40:00 PM 39.9998 -106.4323 285° West  Level FlightAware Approximate
Mon 06:40:50 PM 39.9167 -104.9667 294° West 326 375 11,000  Level Denver TRACON
Mon 06:41:00 PM 40.0000 -106.5696 270° West  Level FlightAware Approximate
Mon 06:42:00 PM 40.0027 -106.7069 274° West  Level FlightAware Approximate
Mon 06:42:09 PM 39.9242 -105.1422 273° West 362 417 14,800  Level Denver Center
Mon 06:43:00 PM 40.0090 -106.8440 273° West  Level FlightAware Approximate
Mon 06:43:10 PM 39.9367 -105.2739 277° West 364 419 17,500  Level Denver Center
Mon 06:44:00 PM 40.0152 -106.9837 273° West  Level FlightAware Approximate
Mon 06:44:12 PM 39.9492 -105.4108 277° West 378 435 20,300  Level Denver Center
Mon 06:45:14 PM 39.9608 -105.5381 277° West 374 430 22,300 2,226 Climbing Denver Center
Mon 06:46:16 PM 39.9753 -105.7122 276° West 399 459 24,900 2,274 Climbing Denver Center
Mon 06:47:18 PM 39.9706 -105.8622 268° West 411 473 27,000 1,839 Climbing Denver Center
Mon 06:48:20 PM 39.9714 -106.0142 270° West 418 481 28,700 1,659 Climbing Denver Center
Mon 06:49:21 PM 39.9675 -106.1686 268° West 426 490 30,400 1,805 Climbing Denver Center
Mon 06:50:23 PM 39.9875 -106.3200 280° West 425 489 32,400 1,984 Climbing Denver Center
Mon 06:51:25 PM 40.0050 -106.4683 279° West 420 483 34,500 2,371 Climbing Denver Center
Mon 06:52:27 PM 40.0114 -106.6239 273° West 389 448 37,300 1,694 Climbing Denver Center
Mon 06:53:29 PM 40.0175 -106.7575 273° West 374 430 38,000 339 Climbing Denver Center
Mon 06:54:31 PM 40.0253 -106.8975 274° West 386 444 38,000  Level Denver Center
Mon 06:55:33 PM 40.0317 -107.0433 273° West 399 459 38,000  Level Denver Center
Mon 06:56:35 PM 40.0386 -107.2131 273° West 396 456 38,000  Level Denver Center
Mon 06:57:36 PM 40.0453 -107.3553 274° West 396 456 38,000  Level Denver Center
Mon 06:58:38 PM 40.0511 -107.4978 273° West 395 455 38,000  Level Denver Center
Mon 06:59:40 PM 40.0575 -107.6411 273° West 395 455 38,000  Level Denver Center
Mon 07:00:42 PM 40.0619 -107.7844 272° West 396 456 38,000  Level Denver Center
Mon 07:01:44 PM 40.0700 -107.9292 274° West 400 460 38,000  Level Denver Center
Mon 07:02:46 PM 40.1053 -108.0981 285° West 403 464 38,000  Level Denver Center
Mon 07:03:48 PM 40.1342 -108.2369 285° West 402 463 38,000  Level Denver Center
Mon 07:04:50 PM 40.1631 -108.3775 285° West 402 463 38,000  Level Denver Center
Mon 07:05:39 PM 40.1856 -108.4878 285° West 401 461 38,000  Level Salt Lake Center
Mon 07:06:41 PM 40.2156 -108.6294 286° West 403 464 38,000  Level Salt Lake Center
Mon 07:07:43 PM 40.2453 -108.7714 285° West 405 466 38,000  Level Salt Lake Center
Mon 07:08:45 PM 40.2786 -108.9431 284° West 407 468 38,000  Level Salt Lake Center
Mon 07:09:46 PM 40.3083 -109.0869 285° West 408 470 38,000  Level Salt Lake Center
Mon 07:10:48 PM 40.3367 -109.2294 285° West 409 471 38,000  Level Salt Lake Center
Mon 07:11:50 PM 40.3647 -109.3719 285° West 408 470 38,000  Level Salt Lake Center
Mon 07:12:52 PM 40.3933 -109.5125 285° West 405 466 38,000  Level Salt Lake Center
Mon 07:13:54 PM 40.4203 -109.6544 284° West 405 466 38,000  Level Salt Lake Center
Mon 07:14:55 PM 40.4533 -109.8228 285° West 400 460 38,000  Level Salt Lake Center
Mon 07:15:57 PM 40.4803 -109.9642 284° West 400 460 38,000  Level Salt Lake Center
Mon 07:16:59 PM 40.5094 -110.1175 284° West 400 460 38,000  Level Salt Lake Center
Mon 07:18:00 PM 40.5342 -110.2469 284° West 400 460 38,000  Level Salt Lake Center
Mon 07:19:02 PM 40.5619 -110.3903 284° West 402 463 38,000  Level Salt Lake Center
Mon 07:20:04 PM 40.5922 -110.5539 284° West 411 473 38,000  Level Salt Lake Center
Mon 07:21:06 PM 40.6189 -110.6953 284° West 411 473 38,000  Level Salt Lake Center
Mon 07:22:07 PM 40.6453 -110.8400 284° West 410 472 38,000  Level Salt Lake Center
Mon 07:23:09 PM 40.6717 -110.9833 284° West 406 467 38,000  Level Salt Lake Center
Mon 07:24:11 PM 40.6981 -111.1275 284° West 406 467 38,000  Level Salt Lake Center
Mon 07:25:13 PM 40.7300 -111.3019 284° West 406 467 38,000  Level Salt Lake Center
Mon 07:26:14 PM 40.7561 -111.4481 283° West 409 471 38,000  Level Salt Lake Center
Mon 07:27:16 PM 40.7822 -111.5936 283° West 407 468 38,000  Level Salt Lake Center
Mon 07:28:18 PM 40.8089 -111.7414 283° West 409 471 38,000  Level Salt Lake Center
Mon 07:29:20 PM 40.8353 -111.8875 283° West 405 466 38,000  Level Salt Lake Center
Mon 07:30:21 PM 40.8467 -112.0378 276° West 407 468 38,000  Level Salt Lake Center
Mon 07:31:23 PM 40.8372 -112.1878 265° West 403 464 38,000  Level Salt Lake Center
Mon 07:32:26 PM 40.8278 -112.3347 265° West 398 458 38,000  Level Salt Lake Center
Mon 07:33:27 PM 40.8192 -112.4803 266° West 397 457 38,000  Level Salt Lake Center
Mon 07:34:29 PM 40.8075 -112.6561 265° West 399 459 38,000  Level Salt Lake Center
Mon 07:35:30 PM 40.7969 -112.8000 265° West 398 458 38,000  Level Salt Lake Center
Mon 07:36:32 PM 40.7867 -112.9456 265° West 400 460 38,000  Level Salt Lake Center
Mon 07:37:34 PM 40.7761 -113.0939 265° West 402 463 38,000  Level Salt Lake Center
Mon 07:38:36 PM 40.7650 -113.2394 264° West 401 461 38,000  Level Salt Lake Center
Mon 07:39:37 PM 40.7547 -113.3869 265° West 402 463 38,000  Level Salt Lake Center
Mon 07:40:39 PM 40.7428 -113.5356 264° West 407 468 38,000  Level Salt Lake Center
Mon 07:41:41 PM 40.7286 -113.7125 264° West 406 467 38,000  Level Salt Lake Center
Mon 07:42:43 PM 40.7219 -113.8597 267° West 405 466 38,000  Level Salt Lake Center
Mon 07:43:45 PM 40.7169 -114.0072 267° West 405 466 38,000  Level Salt Lake Center
Mon 07:44:46 PM 40.7106 -114.1550 267° West 405 466 38,000  Level Salt Lake Center
Mon 07:45:48 PM 40.7053 -114.3025 267° West 405 466 38,000  Level Salt Lake Center
Mon 07:46:50 PM 40.6992 -114.4494 267° West 405 466 38,000  Level Salt Lake Center
Mon 07:47:52 PM 40.6922 -114.6253 267° West 404 465 38,000  Level Salt Lake Center
Mon 07:48:54 PM 40.6861 -114.7694 267° West 402 463 38,000  Level Salt Lake Center
Mon 07:49:56 PM 40.6792 -114.9153 266° West 400 460 38,000  Level Salt Lake Center
Mon 07:50:57 PM 40.6728 -115.0589 267° West 399 459 38,000  Level Salt Lake Center
Mon 07:51:59 PM 40.6633 -115.2031 265° West 399 459 38,000  Level Salt Lake Center
Mon 07:53:01 PM 40.6553 -115.3469 266° West 398 458 38,000  Level Salt Lake Center
Mon 07:54:03 PM 40.6489 -115.4931 267° West 398 458 38,000  Level Salt Lake Center
Mon 07:55:05 PM 40.6403 -115.6675 266° West 398 458 38,000  Level Salt Lake Center
Mon 07:56:07 PM 40.6325 -115.8136 266° West 398 458 38,000  Level Salt Lake Center
Mon 07:57:08 PM 40.6244 -115.9581 266° West 398 458 38,000  Level Salt Lake Center
Mon 07:58:10 PM 40.6167 -116.1039 266° West 399 459 38,000  Level Salt Lake Center
Mon 07:59:12 PM 40.6092 -116.2508 266° West 402 463 38,000  Level Salt Lake Center
Mon 08:00:14 PM 40.6006 -116.3969 266° West 402 463 38,000  Level Salt Lake Center
Mon 08:01:16 PM 40.5908 -116.5719 266° West 403 464 38,000  Level Salt Lake Center
Mon 08:02:18 PM 40.5817 -116.7175 265° West 403 464 38,000  Level Salt Lake Center
Mon 08:03:19 PM 40.5728 -116.8619 265° West 403 464 38,000  Level Salt Lake Center
Mon 08:04:21 PM 40.5483 -117.0036 257° West 404 465 38,000  Level Salt Lake Center
Mon 08:05:23 PM 40.5133 -117.1383 251° West 402 463 38,000  Level Salt Lake Center
Mon 08:06:25 PM 40.4700 -117.3022 251° West 401 461 38,000  Level Salt Lake Center
Mon 08:07:27 PM 40.4328 -117.4397 250° West 401 461 38,000  Level Salt Lake Center
Mon 08:08:28 PM 40.3964 -117.5767 251° West 401 461 38,000  Level Salt Lake Center
Mon 08:09:30 PM 40.3594 -117.7169 251° West 403 464 38,000  Level Salt Lake Center
Mon 08:10:32 PM 40.3219 -117.8547 250° West 403 464 38,000  Level Salt Lake Center
Mon 08:11:11 PM 40.2944 -117.9644 252° West 404 465 38,000  Level Oakland Center
Mon 08:12:13 PM 40.2567 -118.0997 250° West 404 465 38,000  Level Oakland Center
Mon 08:13:14 PM 40.2192 -118.2372 250° West 404 465 38,000  Level Oakland Center
Mon 08:14:16 PM 40.1814 -118.3747 250° West 404 465 38,000  Level Oakland Center
Mon 08:15:17 PM 40.1433 -118.5108 250° West 403 464 38,000  Level Oakland Center
Mon 08:16:19 PM 40.0881 -118.6667 245° Southwest 400 460 38,000  Level Oakland Center
Mon 08:17:21 PM 40.0364 -118.7925 242° Southwest 397 457 38,000  Level Oakland Center
Mon 08:18:22 PM 39.9825 -118.9161 240° Southwest 396 456 38,000  Level Oakland Center
Mon 08:19:24 PM 39.9303 -119.0394 241° Southwest 395 455 38,000 -439 Level Oakland Center
Mon 08:20:25 PM 39.8758 -119.1647 241° Southwest 396 456 37,100 -878 Descending Oakland Center
Mon 08:21:27 PM 39.8203 -119.2936 241° Southwest 408 470 36,200 -1,024 Descending Oakland Center
Mon 08:22:28 PM 39.7531 -119.4486 241° Southwest 410 472 35,000 -1,024 Descending Oakland Center
Mon 08:23:30 PM 39.6989 -119.5783 242° Southwest 411 473 34,100 -927 Descending Oakland Center
Mon 08:24:31 PM 39.6417 -119.7067 240° Southwest 412 474 33,100 -976 Descending Oakland Center
Mon 08:25:33 PM 39.5867 -119.8347 241° Southwest 410 472 32,100 -1,512 Descending Oakland Center
Mon 08:26:34 PM 39.5303 -119.9600 240° Southwest 405 466 30,000 -2,115 Descending Oakland Center
Mon 08:27:35 PM 39.4756 -120.0839 240° Southwest 399 459 27,800 -2,195 Descending Oakland Center
Mon 08:28:37 PM 39.4231 -120.2042 241° Southwest 382 440 25,500 -2,195 Descending Oakland Center
Mon 08:29:38 PM 39.3672 -120.3192 238° Southwest 380 437 23,300 -2,293 Descending Oakland Center
Mon 08:30:40 PM 39.3056 -120.4286 234° Southwest 380 437 20,800 -2,780 Descending Oakland Center
Mon 08:31:41 PM 39.2339 -120.5611 235° Southwest 378 435 17,600 -2,341 Descending Oakland Center
Mon 08:32:43 PM 39.1756 -120.6672 235° Southwest 370 426 16,000 -1,512 Descending Oakland Center
Mon 08:33:44 PM 39.1203 -120.7678 235° Southwest 351 404 14,500 -1,918 Descending Oakland Center
Mon 08:34:45 PM 39.0650 -120.8694 235° Southwest 350 403 12,100 -1,756 Descending Oakland Center
Mon 08:35:47 PM 39.0100 -120.9672 234° Southwest 344 396 10,900 -1,073 Descending Oakland Center
Mon 08:36:48 PM 38.9753 -121.0628 245° Southwest 302 348 9,900 -1,373 Descending Oakland Center
Mon 08:37:45 PM 38.9500 -121.1667 253° West 277 319 8,200 -1,846 Descending Northern Cal TRACON
Mon 08:38:45 PM 38.9333 -121.2667 258° West 269 310 6,300 -1,950 Descending Northern Cal TRACON
Mon 08:39:45 PM 38.9000 -121.3500 243° Southwest 263 303 4,300 -1,800 Descending Northern Cal TRACON
Mon 08:40:45 PM 38.8667 -121.4333 243° Southwest 252 290 2,700 -1,150 Descending Northern Cal TRACON
Mon 08:41:45 PM 38.8333 -121.5000 237° Southwest 206 237 2,000 -400 Descending Northern Cal TRACON
Mon 08:42:45 PM 38.8167 -121.5500 247° West 168 193 1,900 -300 Descending Northern Cal TRACON
Mon 08:43:45 PM 38.7833 -121.5833 218° Southwest 148 170 1,400 -600 Descending Northern Cal TRACON
Mon 08:44:45 PM 38.7500 -121.5833 180° South 130 150 700 -650 Descending Northern Cal TRACON
Mon 08:45:45 PM 38.7000 -121.5833 180° South 125 144 100 -600 Descending Northern Cal TRACON

Login

Don't have an account? Register now (free) for customized features, flight alerts, and more!